createdAt,value
2024-01-30T00:02:04.018Z,25.67
2024-01-30T00:05:06.229Z,22.48
2024-01-30T00:08:08.185Z,26.63
2024-01-30T00:11:10.064Z,27.17
2024-01-30T00:14:12.106Z,26.27
2024-01-30T00:17:13.970Z,23.20
2024-01-30T00:20:15.928Z,24.13
2024-01-30T00:23:17.816Z,24.30
2024-01-30T00:26:19.713Z,22.58
2024-01-30T00:29:23.319Z,21.02
2024-01-30T00:32:25.174Z,20.30
2024-01-30T00:35:28.140Z,21.33
2024-01-30T00:38:29.943Z,21.25
2024-01-30T00:41:31.673Z,21.15
2024-01-30T00:44:38.328Z,19.70
2024-01-30T00:47:40.175Z,19.45
2024-01-30T00:50:41.987Z,20.70
2024-01-30T00:53:43.842Z,19.20
2024-01-30T00:56:45.592Z,19.92
2024-01-30T00:59:47.449Z,20.17
2024-01-30T01:02:49.343Z,20.58
2024-01-30T01:05:51.167Z,18.70
2024-01-30T01:08:53.072Z,19.17
2024-01-30T01:11:54.870Z,21.33
2024-01-30T01:14:56.841Z,19.05
2024-01-30T01:17:58.735Z,19.98
2024-01-30T01:21:01.434Z,20.55
2024-01-30T01:24:03.193Z,20.75
2024-01-30T01:27:06.569Z,18.95
2024-01-30T01:30:10.880Z,18.60
2024-01-30T01:33:15.453Z,18.25
2024-01-30T01:36:17.453Z,18.40
2024-01-30T01:39:19.296Z,15.57
2024-01-30T01:42:21.050Z,14.88
2024-01-30T01:45:23.100Z,14.10
2024-01-30T01:48:25.233Z,14.55
2024-01-30T01:51:28.816Z,15.95
2024-01-30T01:54:30.921Z,14.10
2024-01-30T01:57:33.165Z,13.32
2024-01-30T02:00:35.766Z,13.25
2024-01-30T02:03:37.973Z,14.75
2024-01-30T02:06:40.169Z,12.88
2024-01-30T02:09:42.066Z,13.55
2024-01-30T02:12:43.842Z,12.65
2024-01-30T02:15:50.601Z,12.73
2024-01-30T02:18:52.463Z,10.57
2024-01-30T02:21:54.951Z,10.48
2024-01-30T02:24:56.778Z,9.43
2024-01-30T02:27:58.739Z,9.80
2024-01-30T02:31:00.699Z,9.82
2024-01-30T02:34:02.533Z,9.43
2024-01-30T02:37:04.586Z,9.13
2024-01-30T02:40:07.247Z,9.50
2024-01-30T02:43:09.030Z,10.15
2024-01-30T02:46:11.106Z,9.60
2024-01-30T02:49:13.184Z,9.15
2024-01-30T02:52:15.391Z,8.95
2024-01-30T02:55:20.103Z,8.88
2024-01-30T02:58:22.064Z,7.78
2024-01-30T03:01:25.714Z,7.88
2024-01-30T03:04:27.951Z,6.60
2024-01-30T03:07:30.064Z,7.50
2024-01-30T03:10:32.055Z,6.70
2024-01-30T03:13:33.798Z,6.88
2024-01-30T03:16:35.691Z,6.88
2024-01-30T03:19:37.552Z,7.57
2024-01-30T03:22:39.513Z,11.40
2024-01-30T03:25:41.273Z,14.48
2024-01-30T03:28:43.000Z,14.80
2024-01-30T03:31:44.886Z,14.02
2024-01-30T03:34:46.989Z,15.38
2024-01-30T03:37:48.811Z,14.82
2024-01-30T03:40:50.606Z,14.85
2024-01-30T03:43:52.341Z,14.02
2024-01-30T03:46:54.089Z,12.75
2024-01-30T03:49:55.980Z,10.88
2024-01-30T03:52:57.916Z,7.72
2024-01-30T03:55:59.723Z,6.22
2024-01-30T03:59:01.839Z,6.45
2024-01-30T04:02:03.970Z,5.75
2024-01-30T04:05:06.346Z,6.63
2024-01-30T04:08:08.710Z,6.90
2024-01-30T04:11:10.543Z,6.82
2024-01-30T04:14:12.320Z,8.63
2024-01-30T04:17:14.668Z,12.90
2024-01-30T04:20:20.136Z,9.27
2024-01-30T04:23:22.076Z,8.73
2024-01-30T04:26:24.692Z,8.43
2024-01-30T04:29:26.625Z,8.02
2024-01-30T04:32:28.378Z,8.10
2024-01-30T04:35:30.191Z,6.47
2024-01-30T04:38:32.946Z,7.90
2024-01-30T04:41:35.087Z,8.82
2024-01-30T04:44:37.099Z,7.70
2024-01-30T04:47:40.096Z,10.05
2024-01-30T04:50:42.086Z,13.63
2024-01-30T04:53:43.857Z,14.02
2024-01-30T04:56:45.718Z,13.95
2024-01-30T04:59:47.515Z,13.45
2024-01-30T05:02:49.321Z,12.30
2024-01-30T05:05:51.157Z,16.17
2024-01-30T05:08:53.027Z,17.08
2024-01-30T05:11:54.915Z,19.52
2024-01-30T05:14:56.758Z,19.65
2024-01-30T05:17:58.656Z,17.48
2024-01-30T05:21:00.807Z,19.00
2024-01-30T05:24:02.665Z,26.80
2024-01-30T05:27:04.515Z,27.30
2024-01-30T05:30:09.871Z,24.70
2024-01-30T05:33:13.350Z,19.05
2024-01-30T05:36:15.473Z,20.52
2024-01-30T05:39:17.190Z,24.58
2024-01-30T05:42:19.001Z,25.85
2024-01-30T05:45:21.098Z,25.70
2024-01-30T05:48:22.924Z,28.10
2024-01-30T05:51:25.149Z,24.52
2024-01-30T05:54:26.880Z,23.27
2024-01-30T05:57:28.790Z,25.58
2024-01-30T06:00:30.932Z,21.13
2024-01-30T06:03:32.769Z,20.55
2024-01-30T06:06:34.891Z,18.80
2024-01-30T06:09:36.857Z,20.95
2024-01-30T06:12:38.970Z,20.85
2024-01-30T06:15:40.899Z,22.63
2024-01-30T06:18:42.747Z,22.33
2024-01-30T06:21:44.610Z,21.65
2024-01-30T06:24:48.983Z,21.27
2024-01-30T06:27:51.006Z,21.65
2024-01-30T06:30:52.952Z,22.35
2024-01-30T06:33:54.897Z,21.35
2024-01-30T06:36:56.790Z,18.30
2024-01-30T06:39:58.674Z,16.35
2024-01-30T06:43:00.628Z,15.15
2024-01-30T06:46:02.505Z,17.83
2024-01-30T06:49:04.433Z,19.10
2024-01-30T06:52:07.296Z,22.48
2024-01-30T06:55:09.627Z,25.55
2024-01-30T06:58:11.687Z,32.47
2024-01-30T07:01:13.569Z,35.13
2024-01-30T07:04:15.601Z,34.20
2024-01-30T07:07:17.681Z,32.13
2024-01-30T07:10:19.554Z,38.15
2024-01-30T07:13:21.455Z,39.22
2024-01-30T07:16:24.301Z,43.47
2024-01-30T07:19:26.382Z,47.60
2024-01-30T07:22:28.399Z,53.90
2024-01-30T07:25:31.202Z,53.33
2024-01-30T07:28:33.835Z,54.85
2024-01-30T07:31:35.894Z,58.70
2024-01-30T07:34:45.114Z,56.35
2024-01-30T07:40:56.649Z,53.38
2024-01-30T07:43:58.539Z,53.83
2024-01-30T07:47:00.686Z,41.00
2024-01-30T07:50:02.877Z,15.68
2024-01-30T07:53:05.004Z,17.13
2024-01-30T07:56:06.961Z,28.85
2024-01-30T07:59:12.451Z,47.10
2024-01-30T08:02:14.645Z,26.65
2024-01-30T08:05:16.778Z,27.63
2024-01-30T08:08:18.545Z,25.27
2024-01-30T08:11:27.849Z,27.15
2024-01-30T08:14:29.804Z,22.40
2024-01-30T08:17:31.706Z,15.45
2024-01-30T08:20:33.630Z,6.40
2024-01-30T08:23:35.352Z,6.43
2024-01-30T08:26:38.199Z,6.30
2024-01-30T08:29:40.060Z,7.25
2024-01-30T08:32:41.908Z,5.78
2024-01-30T08:35:43.886Z,5.43
2024-01-30T08:38:45.847Z,24.90
2024-01-30T08:41:48.173Z,6.10
2024-01-30T08:44:52.536Z,6.32
2024-01-30T08:47:54.465Z,8.98
2024-01-30T08:50:56.504Z,26.27
2024-01-30T08:53:58.347Z,4.88
2024-01-30T08:57:00.189Z,31.23
2024-01-30T09:00:05.551Z,9.13
2024-01-30T09:03:07.448Z,28.10
2024-01-30T09:06:10.050Z,11.90
2024-01-30T09:09:11.822Z,5.70
2024-01-30T09:12:14.282Z,9.40
2024-01-30T09:15:16.450Z,6.57
2024-01-30T09:18:18.417Z,5.90
2024-01-30T09:21:20.436Z,5.97
2024-01-30T09:24:22.326Z,23.15
2024-01-30T09:27:24.186Z,7.80
2024-01-30T09:30:26.054Z,5.53
2024-01-30T09:33:27.829Z,5.70
2024-01-30T09:36:29.923Z,7.65
2024-01-30T09:39:31.841Z,5.50
2024-01-30T09:42:37.769Z,6.20
2024-01-30T09:45:43.086Z,8.27
2024-01-30T09:48:48.488Z,5.07
2024-01-30T09:51:51.406Z,3.92
2024-01-30T09:54:54.642Z,4.93
2024-01-30T09:57:56.518Z,9.88
2024-01-30T10:00:59.838Z,4.18
2024-01-30T10:04:02.086Z,5.45
2024-01-30T10:07:04.900Z,4.22
2024-01-30T10:10:07.877Z,4.05
2024-01-30T10:13:11.962Z,5.65
2024-01-30T10:16:16.691Z,3.13
2024-01-30T10:19:19.658Z,8.13
2024-01-30T10:22:21.872Z,7.57
2024-01-30T10:25:24.466Z,4.25
2024-01-30T10:28:30.873Z,2.85
2024-01-30T10:31:32.771Z,3.33
2024-01-30T10:34:35.670Z,4.68
2024-01-30T10:37:37.582Z,4.43
2024-01-30T10:40:41.187Z,3.90
2024-01-30T10:43:48.737Z,6.68
2024-01-30T10:46:57.745Z,3.38
2024-01-30T10:50:00.724Z,2.53
2024-01-30T10:53:05.204Z,3.25
2024-01-30T10:56:08.990Z,8.15
2024-01-30T10:59:12.294Z,4.63
2024-01-30T11:02:15.477Z,9.98
2024-01-30T11:05:28.701Z,6.53
2024-01-30T11:08:33.658Z,5.80
2024-01-30T11:12:01.699Z,6.35
2024-01-30T11:15:08.260Z,4.95
2024-01-30T11:18:10.315Z,5.70
2024-01-30T11:21:15.032Z,15.73
2024-01-30T11:24:16.824Z,4.88
2024-01-30T11:27:18.805Z,5.90
2024-01-30T11:30:27.927Z,8.93
2024-01-30T11:33:34.973Z,3.50
2024-01-30T11:36:38.678Z,5.65
2024-01-30T11:39:42.713Z,6.95
2024-01-30T11:42:45.033Z,5.25
2024-01-30T11:45:47.664Z,4.38
2024-01-30T11:48:49.691Z,4.68
2024-01-30T11:51:51.941Z,4.00
2024-01-30T11:54:54.379Z,4.00
2024-01-30T11:57:57.194Z,3.22
2024-01-30T12:00:59.919Z,3.83
2024-01-30T12:04:02.001Z,4.53
2024-01-30T12:07:04.861Z,3.95
2024-01-30T12:10:08.887Z,6.65
2024-01-30T12:13:10.986Z,3.47
2024-01-30T12:16:14.534Z,7.00
2024-01-30T12:19:24.370Z,4.20
2024-01-30T12:22:26.722Z,8.88
2024-01-30T12:25:28.758Z,5.45
2024-01-30T12:28:31.063Z,3.88
2024-01-30T12:31:34.023Z,3.60
2024-01-30T12:34:49.839Z,8.50
2024-01-30T12:37:59.057Z,3.97
2024-01-30T12:41:01.172Z,4.80
2024-01-30T12:44:03.556Z,29.15
2024-01-30T12:47:05.560Z,52.90
2024-01-30T12:50:07.635Z,19.85
2024-01-30T12:53:10.415Z,13.38
2024-01-30T12:56:12.397Z,4.40
2024-01-30T12:59:14.248Z,4.60
2024-01-30T13:02:16.642Z,6.22
2024-01-30T13:05:18.907Z,12.38
2024-01-30T13:08:21.035Z,5.80
2024-01-30T13:11:22.952Z,45.33
2024-01-30T13:14:26.048Z,25.50
2024-01-30T13:17:28.964Z,11.32
2024-01-30T13:20:31.048Z,10.75
2024-01-30T13:23:33.006Z,6.00
2024-01-30T13:26:34.920Z,28.17
2024-01-30T13:29:36.765Z,8.52
2024-01-30T13:32:39.352Z,6.00
2024-01-30T13:35:41.382Z,6.85
2024-01-30T13:38:43.276Z,14.90
2024-01-30T13:41:45.288Z,22.02
2024-01-30T13:44:47.146Z,36.38
2024-01-30T13:47:49.149Z,5.40
2024-01-30T13:50:51.199Z,4.40
2024-01-30T13:53:53.746Z,7.13
2024-01-30T13:56:55.733Z,5.90
2024-01-30T13:59:58.405Z,5.82
2024-01-30T14:03:00.645Z,8.57
2024-01-30T14:06:02.620Z,35.22
2024-01-30T14:09:08.478Z,14.25
2024-01-30T14:12:10.855Z,32.70
2024-01-30T14:15:22.794Z,7.50
2024-01-30T14:18:29.606Z,6.78
2024-01-30T14:21:31.421Z,49.75
2024-01-30T14:24:33.277Z,8.10
2024-01-30T14:27:36.519Z,8.45
2024-01-30T14:30:38.510Z,4.72
2024-01-30T14:33:41.299Z,6.25
2024-01-30T14:36:43.525Z,59.20
2024-01-30T14:39:45.311Z,5.72
2024-01-30T14:42:47.491Z,15.48
2024-01-30T14:45:50.753Z,6.03
2024-01-30T14:48:53.020Z,15.93
2024-01-30T14:51:55.544Z,23.95
2024-01-30T14:54:57.643Z,17.27
2024-01-30T14:58:00.697Z,15.13
2024-01-30T15:01:02.736Z,11.30
2024-01-30T15:04:04.879Z,9.00
2024-01-30T15:07:06.949Z,14.73
2024-01-30T15:10:10.626Z,12.18
2024-01-30T15:13:13.205Z,10.75
2024-01-30T15:16:15.444Z,9.93
2024-01-30T15:19:17.503Z,15.68
2024-01-30T15:22:19.544Z,13.40
2024-01-30T15:25:21.818Z,7.55
2024-01-30T15:28:37.481Z,8.40
2024-01-30T15:31:39.874Z,9.13
2024-01-30T15:34:41.787Z,10.55
2024-01-30T15:37:43.775Z,6.45
2024-01-30T15:40:45.543Z,36.45
2024-01-30T15:43:47.290Z,6.45
2024-01-30T15:46:49.286Z,9.82
2024-01-30T15:49:51.286Z,8.55
2024-01-30T15:52:53.221Z,14.02
2024-01-30T15:55:55.062Z,8.38
2024-01-30T15:58:57.944Z,12.50
2024-01-30T16:01:59.939Z,10.02
2024-01-30T16:05:03.241Z,10.10
2024-01-30T16:08:05.264Z,25.35
2024-01-30T16:11:07.224Z,13.82
2024-01-30T16:14:09.033Z,26.50
2024-01-30T16:17:11.394Z,12.65
2024-01-30T16:20:15.747Z,14.70
2024-01-30T16:23:17.836Z,13.55
2024-01-30T16:26:20.584Z,23.88
2024-01-30T16:29:22.464Z,15.25
2024-01-30T16:32:24.436Z,23.48
2024-01-30T16:35:44.350Z,17.38
2024-01-30T16:38:48.154Z,16.52
2024-01-30T16:41:50.369Z,19.05
2024-01-30T16:44:52.147Z,14.25
2024-01-30T16:47:54.710Z,26.65
2024-01-30T16:50:56.655Z,65.55
2024-01-30T16:53:58.482Z,14.15
2024-01-30T16:57:00.313Z,34.25
2024-01-30T17:00:02.191Z,25.13
2024-01-30T17:03:04.791Z,23.33
2024-01-30T17:06:09.439Z,25.02
2024-01-30T17:09:16.086Z,23.50
2024-01-30T17:12:18.228Z,18.00
2024-01-30T17:18:22.239Z,17.73
2024-01-30T17:21:26.088Z,16.55
2024-01-30T17:24:33.993Z,20.58
2024-01-30T17:27:45.715Z,23.83
2024-01-30T17:30:49.054Z,55.83
2024-01-30T17:33:52.113Z,60.67
2024-01-30T17:36:54.325Z,35.83
2024-01-30T17:39:56.528Z,35.92
2024-01-30T17:42:58.313Z,15.88
2024-01-30T17:46:00.988Z,24.75
2024-01-30T17:49:05.409Z,21.23
2024-01-30T17:52:08.591Z,22.98
2024-01-30T17:55:10.842Z,17.50
2024-01-30T17:58:12.966Z,17.95
2024-01-30T18:01:15.113Z,18.60
2024-01-30T18:04:19.173Z,14.02
2024-01-30T18:07:21.958Z,14.75
2024-01-30T18:10:23.887Z,18.95
2024-01-30T18:13:26.048Z,15.73
2024-01-30T18:16:28.170Z,12.40
2024-01-30T18:19:30.619Z,13.05
2024-01-30T18:22:33.164Z,17.35
2024-01-30T18:25:35.444Z,13.68
2024-01-30T18:28:37.660Z,11.15
2024-01-30T18:31:43.063Z,12.05
2024-01-30T18:34:45.361Z,11.55
2024-01-30T18:37:47.635Z,15.63
2024-01-30T18:40:49.877Z,25.27
2024-01-30T18:43:52.040Z,13.25
2024-01-30T18:46:54.185Z,20.50
2024-01-30T18:49:56.476Z,17.52
2024-01-30T18:52:58.522Z,17.67
2024-01-30T18:56:00.338Z,15.02
2024-01-30T18:59:02.538Z,13.57
2024-01-30T19:02:05.058Z,15.65
2024-01-30T19:05:07.259Z,14.10
2024-01-30T19:08:09.549Z,13.15
2024-01-30T19:11:21.063Z,10.85
2024-01-30T19:14:24.122Z,10.23
2024-01-30T19:17:26.004Z,9.43
2024-01-30T19:20:28.426Z,10.40
2024-01-30T19:23:30.539Z,8.50
2024-01-30T19:26:32.368Z,8.02
2024-01-30T19:29:34.171Z,11.90
2024-01-30T19:32:37.028Z,9.85
2024-01-30T19:35:38.965Z,10.05
2024-01-30T19:38:40.873Z,8.60
2024-01-30T19:41:44.979Z,9.27
2024-01-30T19:44:47.429Z,8.82
2024-01-30T19:47:49.888Z,10.13
2024-01-30T19:50:52.658Z,10.93
2024-01-30T19:53:55.312Z,8.98
2024-01-30T19:56:57.813Z,7.80
2024-01-30T20:00:00.024Z,8.55
2024-01-30T20:03:06.942Z,8.57
2024-01-30T20:11:04.293Z,5.72
2024-01-30T20:14:06.779Z,5.70
2024-01-30T20:17:09.255Z,6.93
2024-01-30T20:20:12.368Z,6.60
2024-01-30T20:23:14.643Z,9.35
2024-01-30T20:26:16.882Z,5.53
2024-01-30T20:29:19.564Z,5.40
2024-01-30T20:32:22.340Z,7.50
2024-01-30T20:35:25.401Z,7.07
2024-01-30T20:38:30.749Z,6.90
2024-01-30T20:41:39.932Z,8.65
2024-01-30T20:44:42.264Z,9.65
2024-01-30T20:47:44.603Z,6.88
2024-01-30T20:50:46.819Z,6.15
2024-01-30T20:53:48.825Z,5.35
2024-01-30T20:56:50.630Z,6.35
2024-01-30T20:59:52.475Z,6.82
2024-01-30T21:02:54.366Z,6.93
2024-01-30T21:05:56.636Z,7.53
2024-01-30T21:08:58.547Z,7.88
2024-01-30T21:12:00.625Z,35.22
2024-01-30T21:15:04.890Z,12.10
2024-01-30T21:18:09.613Z,10.88
2024-01-30T21:21:11.849Z,6.28
2024-01-30T21:24:13.857Z,7.85
2024-01-30T21:27:15.757Z,6.30
2024-01-30T21:30:17.945Z,6.15
2024-01-30T21:33:19.961Z,9.32
2024-01-30T21:36:22.131Z,8.18
2024-01-30T21:39:23.958Z,9.20
2024-01-30T21:42:26.548Z,5.90
2024-01-30T21:45:29.493Z,5.28
2024-01-30T21:48:31.332Z,6.15
2024-01-30T21:51:33.195Z,14.50
2024-01-30T21:54:38.744Z,7.70
2024-01-30T21:57:40.676Z,18.17
2024-01-30T22:00:42.756Z,6.63
2024-01-30T22:03:46.790Z,6.93
2024-01-30T22:06:48.617Z,4.93
2024-01-30T22:09:50.408Z,26.10
2024-01-30T22:12:52.189Z,9.60
2024-01-30T22:15:54.064Z,6.55
2024-01-30T22:18:56.050Z,5.88
2024-01-30T22:21:58.441Z,8.35
2024-01-30T22:25:00.601Z,5.85
2024-01-30T22:28:02.461Z,6.47
2024-01-30T22:31:04.471Z,8.25
2024-01-30T22:34:06.304Z,6.75
2024-01-30T22:37:08.136Z,5.75
2024-01-30T22:40:10.481Z,23.02
2024-01-30T22:43:12.321Z,11.43
2024-01-30T22:46:14.175Z,6.63
2024-01-30T22:49:16.038Z,6.82
2024-01-30T22:52:18.598Z,5.68
2024-01-30T22:55:20.723Z,8.38
2024-01-30T22:58:22.597Z,6.82
2024-01-30T23:01:24.608Z,7.05
2024-01-30T23:04:26.583Z,10.35
2024-01-30T23:07:28.616Z,8.00
2024-01-30T23:10:30.462Z,7.07
2024-01-30T23:13:32.300Z,6.30
2024-01-30T23:16:34.183Z,6.40
2024-01-30T23:19:36.143Z,6.43
2024-01-30T23:22:38.214Z,7.18
2024-01-30T23:25:40.281Z,8.13
2024-01-30T23:28:44.600Z,8.20
2024-01-30T23:31:46.675Z,7.38
2024-01-30T23:34:48.623Z,8.63
2024-01-30T23:37:50.507Z,8.82
2024-01-30T23:40:53.533Z,7.20
2024-01-30T23:43:55.437Z,9.57
2024-01-30T23:46:57.514Z,11.32
2024-01-30T23:49:59.326Z,8.85
2024-01-30T23:53:01.153Z,8.07
2024-01-30T23:56:02.982Z,8.48
2024-01-30T23:59:04.744Z,9.05
